createdAt,value
2019-05-22T00:01:39.101Z,21.70
2019-05-22T00:04:13.385Z,22.47
2019-05-22T00:06:48.202Z,22.43
2019-05-22T00:09:20.235Z,21.57
2019-05-22T00:11:51.962Z,21.10
2019-05-22T00:14:24.051Z,21.50
2019-05-22T00:16:56.283Z,22.87
2019-05-22T00:19:27.871Z,22.03
2019-05-22T00:22:11.444Z,21.93
2019-05-22T00:24:44.186Z,22.40
2019-05-22T00:27:16.076Z,22.83
2019-05-22T00:29:47.145Z,23.23
2019-05-22T00:32:17.917Z,24.83
2019-05-22T00:34:48.703Z,24.47
2019-05-22T00:37:19.910Z,25.83
2019-05-22T00:39:51.739Z,25.77
2019-05-22T00:42:23.582Z,25.63
2019-05-22T00:44:56.048Z,26.77
2019-05-22T00:47:28.809Z,26.90
2019-05-22T00:50:00.304Z,27.60
2019-05-22T00:52:34.576Z,27.33
2019-05-22T00:55:09.265Z,27.40
2019-05-22T00:57:50.438Z,26.07
2019-05-22T01:00:22.161Z,26.33
2019-05-22T01:02:54.539Z,26.83
2019-05-22T01:05:24.819Z,25.93
2019-05-22T01:07:56.616Z,26.83
2019-05-22T01:10:29.652Z,27.37
2019-05-22T01:13:03.280Z,24.97
2019-05-22T01:15:33.231Z,26.03
2019-05-22T01:18:07.262Z,27.13
2019-05-22T01:20:40.779Z,26.57
2019-05-22T01:23:13.653Z,26.07
2019-05-22T01:25:44.079Z,25.70
2019-05-22T01:28:15.933Z,26.80
2019-05-22T01:30:48.983Z,26.37
2019-05-22T01:33:20.512Z,25.60
2019-05-22T01:36:02.684Z,25.80
2019-05-22T01:38:34.600Z,24.53
2019-05-22T01:41:14.602Z,25.20
2019-05-22T01:43:48.069Z,26.50
2019-05-22T01:46:18.970Z,26.30
2019-05-22T01:48:52.119Z,27.33
2019-05-22T01:51:22.161Z,27.13
2019-05-22T01:53:54.889Z,25.47
2019-05-22T01:56:26.784Z,24.83
2019-05-22T01:58:58.225Z,25.50
2019-05-22T02:01:29.872Z,25.53
2019-05-22T02:04:01.933Z,24.57
2019-05-22T02:06:34.181Z,23.93
2019-05-22T02:09:17.175Z,25.57
2019-05-22T02:11:50.853Z,25.57
2019-05-22T02:14:22.331Z,25.73
2019-05-22T02:16:57.109Z,26.37
2019-05-22T02:19:25.462Z,25.03
2019-05-22T02:21:56.428Z,25.40
2019-05-22T02:24:26.525Z,24.20
2019-05-22T02:26:57.053Z,25.43
2019-05-22T02:29:27.012Z,23.00
2019-05-22T02:31:58.294Z,23.50
2019-05-22T02:34:28.849Z,23.73
2019-05-22T02:36:59.228Z,23.43
2019-05-22T02:39:31.684Z,24.30
2019-05-22T02:42:12.358Z,24.50
2019-05-22T02:44:45.691Z,24.67
2019-05-22T02:47:20.781Z,24.93
2019-05-22T02:49:51.740Z,23.77
2019-05-22T02:52:24.005Z,25.27
2019-05-22T02:54:55.334Z,25.40
2019-05-22T02:57:26.346Z,26.43
2019-05-22T02:59:57.177Z,25.87
2019-05-22T03:02:28.190Z,28.47
2019-05-22T03:05:03.779Z,28.40
2019-05-22T03:07:33.951Z,28.50
2019-05-22T03:10:05.252Z,27.83
2019-05-22T03:12:36.373Z,28.20
2019-05-22T03:15:09.283Z,28.20
2019-05-22T03:17:40.879Z,28.07
2019-05-22T03:20:13.736Z,28.10
2019-05-22T03:22:49.441Z,29.27
2019-05-22T03:25:20.064Z,27.60
2019-05-22T03:27:51.945Z,28.07
2019-05-22T03:30:32.272Z,28.40
2019-05-22T03:33:05.095Z,28.70
2019-05-22T03:35:46.069Z,26.57
2019-05-22T03:38:18.989Z,28.93
2019-05-22T03:40:52.807Z,27.57
2019-05-22T03:43:25.243Z,28.20
2019-05-22T03:45:57.747Z,27.83
2019-05-22T03:48:30.746Z,26.77
2019-05-22T03:51:14.028Z,26.77
2019-05-22T03:53:46.386Z,25.90
2019-05-22T03:56:17.514Z,26.77
2019-05-22T03:58:47.865Z,25.53
2019-05-22T04:01:21.775Z,24.47
2019-05-22T04:03:52.781Z,25.10
2019-05-22T04:06:24.030Z,24.97
2019-05-22T04:08:54.890Z,25.60
2019-05-22T04:11:28.781Z,25.67
2019-05-22T04:13:59.596Z,23.53
2019-05-22T04:16:29.803Z,24.77
2019-05-22T04:19:00.996Z,24.07
2019-05-22T04:21:31.435Z,25.23
2019-05-22T04:24:01.535Z,25.07
2019-05-22T04:26:32.789Z,24.73
2019-05-22T04:29:04.513Z,25.30
2019-05-22T04:32:00.579Z,24.33
2019-05-22T04:34:30.536Z,24.33
2019-05-22T04:37:01.097Z,23.80
2019-05-22T04:39:33.002Z,24.30
2019-05-22T04:42:04.821Z,25.03
2019-05-22T04:44:35.057Z,24.87
2019-05-22T04:47:05.490Z,24.27
2019-05-22T04:49:36.659Z,25.20
2019-05-22T04:52:07.360Z,25.13
2019-05-22T04:54:37.460Z,26.40
2019-05-22T04:57:08.939Z,26.20
2019-05-22T04:59:40.126Z,25.20
2019-05-22T05:02:10.415Z,25.47
2019-05-22T05:04:41.216Z,24.13
2019-05-22T05:07:12.219Z,26.03
2019-05-22T05:09:42.504Z,26.53
2019-05-22T05:12:12.854Z,25.20
2019-05-22T05:14:43.045Z,26.17
2019-05-22T05:17:14.278Z,23.90
2019-05-22T05:19:44.211Z,24.70
2019-05-22T05:22:17.266Z,26.23
2019-05-22T05:24:47.235Z,24.80
2019-05-22T05:27:17.336Z,23.97
2019-05-22T05:29:47.519Z,24.07
2019-05-22T05:32:18.069Z,24.33
2019-05-22T05:34:51.122Z,24.20
2019-05-22T05:37:22.971Z,24.53
2019-05-22T05:40:06.471Z,24.53
2019-05-22T05:42:37.602Z,24.60
2019-05-22T05:45:13.438Z,22.40
2019-05-22T05:47:53.266Z,23.40
2019-05-22T05:50:40.078Z,22.60
2019-05-22T05:53:16.365Z,24.30
2019-05-22T05:55:58.376Z,23.53
2019-05-22T05:58:35.540Z,23.13
2019-05-22T06:01:19.232Z,24.50
2019-05-22T06:03:49.548Z,23.83
2019-05-22T06:06:26.998Z,23.57
2019-05-22T06:08:59.315Z,24.77
2019-05-22T06:11:33.698Z,22.23
2019-05-22T06:14:06.306Z,22.40
2019-05-22T06:16:53.853Z,22.43
2019-05-22T06:19:25.947Z,23.63
2019-05-22T06:21:57.032Z,23.13
2019-05-22T06:24:38.425Z,22.57
2019-05-22T06:27:14.331Z,22.77
2019-05-22T06:29:53.065Z,22.37
2019-05-22T06:32:38.425Z,21.37
2019-05-22T06:35:09.863Z,20.20
2019-05-22T06:37:55.087Z,20.73
2019-05-22T06:40:26.193Z,20.90
2019-05-22T06:43:25.688Z,20.80
2019-05-22T06:45:56.392Z,20.10
2019-05-22T06:48:26.862Z,20.20
2019-05-22T06:50:57.792Z,20.93
2019-05-22T06:53:27.978Z,20.33
2019-05-22T06:55:57.841Z,19.90
2019-05-22T06:58:27.958Z,20.30
2019-05-22T07:00:57.976Z,20.93
2019-05-22T07:03:28.294Z,20.70
2019-05-22T07:05:58.681Z,21.23
2019-05-22T07:08:28.674Z,21.17
2019-05-22T07:10:58.899Z,20.87
2019-05-22T07:13:29.599Z,21.23
2019-05-22T07:16:02.660Z,20.00
2019-05-22T07:18:32.962Z,18.83
2019-05-22T07:21:03.481Z,18.57
2019-05-22T07:23:35.230Z,19.70
2019-05-22T07:26:05.946Z,20.10
2019-05-22T07:28:36.526Z,19.37
2019-05-22T07:31:07.534Z,18.73
2019-05-22T07:33:37.770Z,17.70
2019-05-22T07:36:12.169Z,18.50
2019-05-22T07:38:40.275Z,18.27
2019-05-22T07:41:11.519Z,17.57
2019-05-22T07:43:42.283Z,16.70
2019-05-22T07:46:12.493Z,18.60
2019-05-22T07:48:42.880Z,17.37
2019-05-22T07:51:13.595Z,18.00
2019-05-22T07:53:43.797Z,18.37
2019-05-22T07:56:15.575Z,16.97
2019-05-22T07:58:46.214Z,18.07
2019-05-22T08:01:17.973Z,16.97
2019-05-22T08:03:48.642Z,18.17
2019-05-22T08:06:19.887Z,16.57
2019-05-22T08:08:52.263Z,17.30
2019-05-22T08:11:23.233Z,18.40
2019-05-22T08:13:54.340Z,17.07
2019-05-22T08:16:24.954Z,16.83
2019-05-22T08:18:54.917Z,15.60
2019-05-22T08:21:24.953Z,16.77
2019-05-22T08:23:55.863Z,16.93
2019-05-22T08:26:27.066Z,14.60
2019-05-22T08:28:57.975Z,16.70
2019-05-22T08:31:28.471Z,15.97
2019-05-22T08:33:59.431Z,14.93
2019-05-22T08:36:30.306Z,16.07
2019-05-22T08:39:01.292Z,14.93
2019-05-22T08:41:36.055Z,14.40
2019-05-22T08:44:17.264Z,13.93
2019-05-22T08:46:40.196Z,13.73
2019-05-22T08:49:10.812Z,14.63
2019-05-22T08:51:41.085Z,13.37
2019-05-22T08:54:12.880Z,14.23
2019-05-22T08:56:46.178Z,13.97
2019-05-22T08:59:19.898Z,14.23
2019-05-22T09:01:48.186Z,15.77
2019-05-22T09:04:18.296Z,15.23
2019-05-22T09:06:48.192Z,14.67
2019-05-22T09:09:18.451Z,14.23
2019-05-22T09:11:48.434Z,14.03
2019-05-22T09:14:18.749Z,14.60
2019-05-22T09:16:48.684Z,13.83
2019-05-22T09:19:18.787Z,14.37
2019-05-22T09:21:48.698Z,14.37
2019-05-22T09:24:19.563Z,14.70
2019-05-22T09:26:50.534Z,14.60
2019-05-22T09:29:20.537Z,15.63
2019-05-22T09:31:50.852Z,14.83
2019-05-22T09:34:20.784Z,14.57
2019-05-22T09:36:50.745Z,15.90
2019-05-22T09:39:21.791Z,15.63
2019-05-22T09:41:51.939Z,15.97
2019-05-22T09:44:21.886Z,16.97
2019-05-22T09:46:51.757Z,16.83
2019-05-22T09:49:24.068Z,19.00
2019-05-22T09:51:55.074Z,18.80
2019-05-22T09:54:25.198Z,18.23
2019-05-22T09:56:55.622Z,17.97
2019-05-22T09:59:26.183Z,17.50
2019-05-22T10:01:56.439Z,19.17
2019-05-22T10:04:26.471Z,18.73
2019-05-22T10:06:56.445Z,17.27
2019-05-22T10:09:27.753Z,18.73
2019-05-22T10:11:57.804Z,18.33
2019-05-22T10:14:27.996Z,18.37
2019-05-22T10:16:58.027Z,18.87
2019-05-22T10:19:28.785Z,18.50
2019-05-22T10:21:59.005Z,18.83
2019-05-22T10:24:29.138Z,18.37
2019-05-22T10:26:59.456Z,19.00
2019-05-22T10:29:32.332Z,19.40
2019-05-22T10:32:02.022Z,19.50
2019-05-22T10:34:32.100Z,17.77
2019-05-22T10:37:02.302Z,17.77
2019-05-22T10:39:32.660Z,17.30
2019-05-22T10:42:02.811Z,18.20
2019-05-22T10:44:34.316Z,17.50
2019-05-22T10:47:04.549Z,17.43
2019-05-22T10:49:34.613Z,16.77
2019-05-22T10:52:05.455Z,16.43
2019-05-22T10:54:35.637Z,15.83
2019-05-22T10:57:06.317Z,15.60
2019-05-22T10:59:37.429Z,15.23
2019-05-22T11:02:08.158Z,14.73
2019-05-22T11:04:39.359Z,13.87
2019-05-22T11:07:09.799Z,13.70
2019-05-22T11:09:40.384Z,12.60
2019-05-22T11:12:10.869Z,12.27
2019-05-22T11:14:41.071Z,12.63
2019-05-22T11:17:12.031Z,12.30
2019-05-22T11:19:41.947Z,11.97
2019-05-22T11:22:12.647Z,11.93
2019-05-22T11:24:42.827Z,11.90
2019-05-22T11:27:12.858Z,12.57
2019-05-22T11:29:43.149Z,12.13
2019-05-22T11:32:15.285Z,11.50
2019-05-22T11:34:45.847Z,12.50
2019-05-22T11:37:15.873Z,11.33
2019-05-22T11:39:46.967Z,11.13
2019-05-22T11:42:17.484Z,10.90
2019-05-22T11:44:47.348Z,11.13
2019-05-22T11:47:18.686Z,10.73
2019-05-22T11:49:49.084Z,10.40
2019-05-22T11:52:19.357Z,10.40
2019-05-22T11:54:49.510Z,10.83
2019-05-22T11:57:20.697Z,10.83
2019-05-22T11:59:50.879Z,10.33
2019-05-22T12:02:23.316Z,9.87
2019-05-22T12:04:53.846Z,9.50
2019-05-22T12:07:24.601Z,9.03
2019-05-22T12:09:54.887Z,9.27
2019-05-22T12:12:25.597Z,8.77
2019-05-22T12:14:55.539Z,10.00
2019-05-22T12:17:37.304Z,9.67
2019-05-22T12:19:58.096Z,9.20
2019-05-22T12:22:28.254Z,10.10
2019-05-22T12:24:58.181Z,8.50
2019-05-22T12:27:28.293Z,8.90
2019-05-22T12:29:58.393Z,8.47
2019-05-22T12:32:30.825Z,8.57
2019-05-22T12:35:01.520Z,8.43
2019-05-22T12:37:31.789Z,8.90
2019-05-22T12:40:02.324Z,9.23
2019-05-22T12:42:33.606Z,8.77
2019-05-22T12:45:06.882Z,8.17
2019-05-22T12:47:38.524Z,8.63
2019-05-22T12:50:09.042Z,9.70
2019-05-22T12:52:39.408Z,8.47
2019-05-22T12:55:10.405Z,8.70
2019-05-22T12:57:40.599Z,8.07
2019-05-22T13:00:12.646Z,7.77
2019-05-22T13:02:43.220Z,7.80
2019-05-22T13:05:14.819Z,7.90
2019-05-22T13:07:45.473Z,7.73
2019-05-22T13:10:16.792Z,7.80
2019-05-22T13:12:47.130Z,8.77
2019-05-22T13:15:17.653Z,8.20
2019-05-22T13:17:48.160Z,8.33
2019-05-22T13:20:40.516Z,7.60
2019-05-22T13:22:55.128Z,8.93
2019-05-22T13:25:28.697Z,8.13
2019-05-22T13:28:01.318Z,7.30
2019-05-22T13:30:34.550Z,8.20
2019-05-22T13:33:06.056Z,7.63
2019-05-22T13:35:37.184Z,8.00
2019-05-22T13:38:07.753Z,8.80
2019-05-22T13:40:39.507Z,7.70
2019-05-22T13:43:10.205Z,6.93
2019-05-22T13:45:40.249Z,8.00
2019-05-22T13:48:11.301Z,6.83
2019-05-22T13:50:41.951Z,6.50
2019-05-22T13:53:16.042Z,7.40
2019-05-22T13:55:46.321Z,6.53
2019-05-22T13:58:19.371Z,7.03
2019-05-22T14:00:50.231Z,7.03
2019-05-22T14:03:20.785Z,6.93
2019-05-22T14:05:54.643Z,7.17
2019-05-22T14:08:25.116Z,5.80
2019-05-22T14:10:55.964Z,6.17
2019-05-22T14:13:27.809Z,5.57
2019-05-22T14:15:58.028Z,5.80
2019-05-22T14:18:28.313Z,6.07
2019-05-22T14:20:58.934Z,5.20
2019-05-22T14:23:29.890Z,5.07
2019-05-22T14:26:00.033Z,5.03
2019-05-22T14:28:30.136Z,5.53
2019-05-22T14:31:00.515Z,5.23
2019-05-22T14:33:31.425Z,4.47
2019-05-22T14:36:02.968Z,4.60
2019-05-22T14:38:33.272Z,3.67
2019-05-22T14:41:04.507Z,4.17
2019-05-22T14:43:34.604Z,4.00
2019-05-22T14:46:04.608Z,3.70
2019-05-22T14:48:34.972Z,4.00
2019-05-22T14:51:05.772Z,3.40
2019-05-22T14:53:37.316Z,3.93
2019-05-22T14:56:11.017Z,3.80
2019-05-22T14:58:43.666Z,3.83
2019-05-22T15:01:13.594Z,4.10
2019-05-22T15:03:43.693Z,4.20
2019-05-22T15:06:14.274Z,4.13
2019-05-22T15:08:44.333Z,4.57
2019-05-22T15:11:16.755Z,4.13
2019-05-22T15:13:47.635Z,4.57
2019-05-22T15:16:18.371Z,4.37
2019-05-22T15:18:48.323Z,4.33
2019-05-22T15:21:18.511Z,5.13
2019-05-22T15:23:48.818Z,5.23
2019-05-22T15:26:19.289Z,4.43
2019-05-22T15:28:49.346Z,5.33
2019-05-22T15:31:20.109Z,5.50
2019-05-22T15:33:50.530Z,5.30
2019-05-22T15:36:22.717Z,5.23
2019-05-22T15:38:53.996Z,5.33
2019-05-22T15:41:24.201Z,5.20
2019-05-22T15:43:54.802Z,5.23
2019-05-22T15:46:27.340Z,5.33
2019-05-22T15:48:58.300Z,5.53
2019-05-22T15:51:32.061Z,4.80
2019-05-22T15:54:05.516Z,6.40
2019-05-22T15:56:38.003Z,5.63
2019-05-22T15:59:10.049Z,5.53
2019-05-22T16:01:41.432Z,5.83
2019-05-22T16:04:14.939Z,5.30
2019-05-22T16:06:46.214Z,6.90
2019-05-22T16:09:18.002Z,6.20
2019-05-22T16:11:51.072Z,6.57
2019-05-22T16:14:22.119Z,6.43
2019-05-22T16:16:53.085Z,6.33
2019-05-22T16:19:25.084Z,6.00
2019-05-22T16:21:58.976Z,6.20
2019-05-22T16:24:29.331Z,6.50
2019-05-22T16:27:00.191Z,6.27
2019-05-22T16:29:31.802Z,6.07
2019-05-22T16:32:04.354Z,6.70
2019-05-22T16:34:35.682Z,7.17
2019-05-22T16:37:07.248Z,6.70
2019-05-22T16:39:39.847Z,6.77
2019-05-22T16:42:10.335Z,6.57
2019-05-22T16:44:41.217Z,6.10
2019-05-22T16:47:12.320Z,5.53
2019-05-22T16:49:43.287Z,6.10
2019-05-22T16:52:14.292Z,5.83
2019-05-22T16:54:47.075Z,6.17
2019-05-22T16:57:18.847Z,6.27
2019-05-22T16:59:49.258Z,5.27
2019-05-22T17:02:20.245Z,6.10
2019-05-22T17:04:50.229Z,6.30
2019-05-22T17:07:20.508Z,5.50
2019-05-22T17:09:52.366Z,5.57
2019-05-22T17:12:23.312Z,5.80
2019-05-22T17:14:54.392Z,6.43
2019-05-22T17:17:24.769Z,6.30
2019-05-22T17:19:54.865Z,7.07
2019-05-22T17:22:26.116Z,6.27
2019-05-22T17:24:57.305Z,6.43
2019-05-22T17:27:28.964Z,6.43
2019-05-22T17:29:59.492Z,6.53
2019-05-22T17:32:29.573Z,6.77
2019-05-22T17:35:00.318Z,6.13
2019-05-22T17:37:31.978Z,5.80
2019-05-22T17:40:05.839Z,6.10
2019-05-22T17:42:38.020Z,6.17
2019-05-22T17:45:11.560Z,5.93
2019-05-22T17:47:44.366Z,6.50
2019-05-22T17:50:26.531Z,6.50
2019-05-22T17:52:54.810Z,5.93
2019-05-22T17:55:27.656Z,6.60
2019-05-22T17:57:59.677Z,6.90
2019-05-22T18:00:37.396Z,6.57
2019-05-22T18:03:07.727Z,7.03
2019-05-22T18:05:38.802Z,7.67
2019-05-22T18:08:10.844Z,7.43
2019-05-22T18:10:42.875Z,7.40
2019-05-22T18:13:14.141Z,7.30
2019-05-22T18:15:44.995Z,7.30
2019-05-22T18:18:15.722Z,7.27
2019-05-22T18:20:46.118Z,7.43
2019-05-22T18:23:16.028Z,6.97
2019-05-22T18:25:46.422Z,6.93
2019-05-22T18:28:17.786Z,7.17
2019-05-22T18:30:47.775Z,7.17
2019-05-22T18:33:18.024Z,7.17
2019-05-22T18:35:48.093Z,8.03
2019-05-22T18:38:18.009Z,7.53
2019-05-22T18:40:48.024Z,7.07
2019-05-22T18:43:18.921Z,8.00
2019-05-22T18:45:49.468Z,7.47
2019-05-22T18:48:19.515Z,7.27
2019-05-22T18:50:49.517Z,7.07
2019-05-22T18:53:19.889Z,8.00
2019-05-22T18:55:49.764Z,6.90
2019-05-22T18:58:19.699Z,7.40
2019-05-22T19:00:49.701Z,7.07
2019-05-22T19:03:21.020Z,7.27
2019-05-22T19:05:52.165Z,7.10
2019-05-22T19:08:22.502Z,7.77
2019-05-22T19:10:52.741Z,8.07
2019-05-22T19:13:23.635Z,7.47
2019-05-22T19:15:53.844Z,7.67
2019-05-22T19:18:24.372Z,8.03
2019-05-22T19:20:55.153Z,8.13
2019-05-22T19:23:26.938Z,7.57
2019-05-22T19:25:58.594Z,8.33
2019-05-22T19:28:42.983Z,7.40
2019-05-22T19:31:01.673Z,7.43
2019-05-22T19:33:32.068Z,7.37
2019-05-22T19:36:03.254Z,7.40
2019-05-22T19:38:33.850Z,7.77
2019-05-22T19:41:05.279Z,8.13
2019-05-22T19:43:36.475Z,7.07
2019-05-22T19:46:08.976Z,8.03
2019-05-22T19:48:39.277Z,6.80
2019-05-22T19:51:09.594Z,8.07
2019-05-22T19:53:40.536Z,7.83
2019-05-22T19:56:12.242Z,7.80
2019-05-22T19:58:43.452Z,8.13
2019-05-22T20:01:15.329Z,8.53
2019-05-22T20:03:48.719Z,8.67
2019-05-22T20:06:22.143Z,9.53
2019-05-22T20:08:52.831Z,11.00
2019-05-22T20:11:23.005Z,10.53
2019-05-22T20:13:55.423Z,10.60
2019-05-22T20:16:25.450Z,11.47
2019-05-22T20:18:55.679Z,11.90
2019-05-22T20:21:26.113Z,12.20
2019-05-22T20:23:58.711Z,12.20
2019-05-22T20:26:31.755Z,12.43
2019-05-22T20:29:03.059Z,12.23
2019-05-22T20:31:33.444Z,12.37
2019-05-22T20:34:04.701Z,12.43
2019-05-22T20:36:36.621Z,12.20
2019-05-22T20:39:09.645Z,12.47
2019-05-22T20:41:42.800Z,12.20
2019-05-22T20:44:13.863Z,12.20
2019-05-22T20:46:46.426Z,12.83
2019-05-22T20:49:16.391Z,14.33
2019-05-22T20:51:47.059Z,12.73
2019-05-22T20:54:19.449Z,12.20
2019-05-22T20:56:51.647Z,11.93
2019-05-22T20:59:22.292Z,13.07
2019-05-22T21:01:52.292Z,11.37
2019-05-22T21:04:25.491Z,11.13
2019-05-22T21:07:00.303Z,11.50
2019-05-22T21:09:32.450Z,10.97
2019-05-22T21:12:03.801Z,11.27
2019-05-22T21:14:34.611Z,10.43
2019-05-22T21:17:06.200Z,11.80
2019-05-22T21:19:36.357Z,10.20
2019-05-22T21:22:06.563Z,10.07
2019-05-22T21:24:36.687Z,11.77
2019-05-22T21:27:07.536Z,10.90
2019-05-22T21:29:38.116Z,9.73
2019-05-22T21:32:08.430Z,10.57
2019-05-22T21:34:40.187Z,10.17
2019-05-22T21:37:10.573Z,10.53
2019-05-22T21:39:42.143Z,9.93
2019-05-22T21:42:13.164Z,10.53
2019-05-22T21:44:43.447Z,10.70
2019-05-22T21:47:13.656Z,10.47
2019-05-22T21:49:44.363Z,11.67
2019-05-22T21:52:15.671Z,10.53
2019-05-22T21:54:46.264Z,11.27
2019-05-22T21:57:17.091Z,12.07
2019-05-22T21:59:47.307Z,11.50
2019-05-22T22:02:24.964Z,12.57
2019-05-22T22:04:55.104Z,12.60
2019-05-22T22:07:25.031Z,11.00
2019-05-22T22:09:55.245Z,12.27
2019-05-22T22:12:25.273Z,12.00
2019-05-22T22:14:55.702Z,12.40
2019-05-22T22:17:27.206Z,12.30
2019-05-22T22:19:57.620Z,11.43
2019-05-22T22:22:28.188Z,20.37
2019-05-22T22:24:59.660Z,22.07
2019-05-22T22:27:31.260Z,19.80
2019-05-22T22:30:03.222Z,15.33
2019-05-22T22:32:35.214Z,13.23
2019-05-22T22:35:08.428Z,13.40
2019-05-22T22:37:38.517Z,13.53
2019-05-22T22:40:10.714Z,12.40
2019-05-22T22:42:41.428Z,13.10
2019-05-22T22:45:18.713Z,12.20
2019-05-22T22:47:51.083Z,12.70
2019-05-22T22:50:23.272Z,12.40
2019-05-22T22:52:54.368Z,11.87
2019-05-22T22:55:28.119Z,11.27
2019-05-22T22:58:15.825Z,12.03
2019-05-22T23:00:38.504Z,11.83
2019-05-22T23:03:11.746Z,12.80
2019-05-22T23:05:44.616Z,11.60
2019-05-22T23:08:17.694Z,12.27
2019-05-22T23:10:48.981Z,12.40
2019-05-22T23:13:19.246Z,12.07
2019-05-22T23:15:51.448Z,12.43
2019-05-22T23:18:28.007Z,12.30
2019-05-22T23:20:57.275Z,12.03
2019-05-22T23:23:27.300Z,13.07
2019-05-22T23:25:57.333Z,13.63
2019-05-22T23:28:34.543Z,12.50
2019-05-22T23:30:59.296Z,12.17
2019-05-22T23:33:31.248Z,11.97
2019-05-22T23:36:01.737Z,11.97
2019-05-22T23:38:32.510Z,12.43
2019-05-22T23:41:04.320Z,12.17
2019-05-22T23:43:34.322Z,13.17
2019-05-22T23:46:06.432Z,13.80
2019-05-22T23:48:37.956Z,12.83
2019-05-22T23:51:08.888Z,12.83
2019-05-22T23:53:40.434Z,13.63
2019-05-22T23:56:11.706Z,14.23
2019-05-22T23:58:52.195Z,13.60
